createdAt,value
2018-02-17T00:01:04.338Z,40.63
2018-02-17T00:03:31.164Z,40.60
2018-02-17T00:05:57.994Z,42.28
2018-02-17T00:08:25.585Z,43.33
2018-02-17T00:10:52.422Z,43.15
2018-02-17T00:13:19.267Z,41.67
2018-02-17T00:15:46.160Z,43.78
2018-02-17T00:18:13.009Z,42.38
2018-02-17T00:20:39.873Z,42.72
2018-02-17T00:23:07.466Z,40.58
2018-02-17T00:25:34.374Z,44.25
2018-02-17T00:28:01.217Z,42.42
2018-02-17T00:30:28.043Z,45.90
2018-02-17T00:32:54.905Z,41.25
2018-02-17T00:35:21.838Z,40.42
2018-02-17T00:37:48.690Z,43.78
2018-02-17T00:40:15.517Z,39.90
2018-02-17T00:42:42.327Z,43.50
2018-02-17T00:45:09.243Z,37.72
2018-02-17T00:47:36.806Z,41.50
2018-02-17T00:50:03.638Z,36.22
2018-02-17T00:52:30.494Z,40.95
2018-02-17T00:54:58.159Z,40.33
2018-02-17T00:57:24.994Z,42.03
2018-02-17T00:59:51.830Z,39.17
2018-02-17T01:02:18.638Z,38.45
2018-02-17T01:04:45.526Z,39.30
2018-02-17T01:07:13.112Z,39.08
2018-02-17T01:09:39.995Z,37.60
2018-02-17T01:12:07.566Z,38.00
2018-02-17T01:14:34.412Z,39.83
2018-02-17T01:17:01.287Z,36.15
2018-02-17T01:19:28.130Z,35.63
2018-02-17T01:21:55.742Z,39.10
2018-02-17T01:24:22.730Z,38.92
2018-02-17T01:26:50.333Z,37.92
2018-02-17T01:29:17.163Z,42.15
2018-02-17T01:31:44.027Z,40.92
2018-02-17T01:34:10.898Z,42.40
2018-02-17T01:36:37.733Z,40.03
2018-02-17T01:39:04.582Z,43.30
2018-02-17T01:41:31.415Z,40.72
2018-02-17T01:43:58.271Z,39.78
2018-02-17T01:46:25.146Z,39.13
2018-02-17T01:48:51.941Z,38.72
2018-02-17T01:51:18.746Z,38.35
2018-02-17T01:53:45.716Z,38.10
2018-02-17T01:56:12.539Z,39.42
2018-02-17T01:58:40.126Z,38.33
2018-02-17T02:01:07.699Z,44.38
2018-02-17T02:03:34.519Z,40.72
2018-02-17T02:06:01.361Z,43.63
2018-02-17T02:08:28.936Z,40.15
2018-02-17T02:10:55.750Z,42.33
2018-02-17T02:13:22.589Z,41.65
2018-02-17T02:15:49.522Z,39.03
2018-02-17T02:18:16.360Z,40.25
2018-02-17T02:20:43.154Z,40.65
2018-02-17T02:23:10.026Z,41.90
2018-02-17T02:25:36.877Z,41.97
2018-02-17T02:28:03.698Z,39.63
2018-02-17T02:30:30.534Z,41.92
2018-02-17T02:32:57.362Z,40.00
2018-02-17T02:35:24.287Z,41.95
2018-02-17T02:37:51.098Z,38.90
2018-02-17T02:40:17.906Z,39.75
2018-02-17T02:42:45.462Z,39.50
2018-02-17T02:45:12.402Z,40.42
2018-02-17T02:47:39.242Z,39.88
2018-02-17T02:50:06.810Z,40.90
2018-02-17T02:52:34.351Z,40.92
2018-02-17T02:55:02.017Z,42.75
2018-02-17T02:57:28.803Z,40.08
2018-02-17T02:59:55.638Z,42.20
2018-02-17T03:02:22.475Z,43.28
2018-02-17T03:04:49.330Z,42.75
2018-02-17T03:07:16.151Z,40.47
2018-02-17T03:09:42.991Z,40.78
2018-02-17T03:12:09.818Z,44.58
2018-02-17T03:14:36.705Z,40.40
2018-02-17T03:17:03.546Z,41.92
2018-02-17T03:19:30.384Z,40.40
2018-02-17T03:21:57.199Z,38.20
2018-02-17T03:24:24.132Z,41.65
2018-02-17T03:26:50.959Z,42.00
2018-02-17T03:29:17.759Z,42.35
2018-02-17T03:31:44.611Z,40.80
2018-02-17T03:34:11.469Z,39.63
2018-02-17T03:36:39.066Z,39.63
2018-02-17T03:39:05.863Z,39.88
2018-02-17T03:41:32.682Z,38.30
2018-02-17T03:43:59.570Z,37.95
2018-02-17T03:46:27.130Z,38.17
2018-02-17T03:48:54.702Z,36.53
2018-02-17T03:51:22.287Z,38.78
2018-02-17T03:53:49.185Z,36.95
2018-02-17T03:56:16.007Z,36.03
2018-02-17T03:58:42.818Z,37.20
2018-02-17T04:01:09.637Z,36.92
2018-02-17T04:03:36.510Z,37.55
2018-02-17T04:06:03.332Z,37.13
2018-02-17T04:08:30.861Z,36.05
2018-02-17T04:10:58.448Z,34.60
2018-02-17T04:13:25.270Z,33.88
2018-02-17T04:15:52.886Z,34.38
2018-02-17T04:18:19.725Z,34.08
2018-02-17T04:20:46.544Z,32.72
2018-02-17T04:23:13.409Z,33.50
2018-02-17T04:25:40.234Z,34.15
2018-02-17T04:28:07.058Z,33.67
2018-02-17T04:30:34.631Z,34.35
2018-02-17T04:33:01.454Z,32.25
2018-02-17T04:35:29.054Z,32.50
2018-02-17T04:37:55.965Z,30.45
2018-02-17T04:40:22.798Z,33.28
2018-02-17T04:45:53.733Z,30.08
2018-02-17T04:48:26.750Z,32.30
2018-02-17T04:50:56.506Z,31.05
2018-02-17T04:53:38.250Z,30.30
2018-02-17T04:56:25.655Z,33.20
2018-02-17T04:59:10.178Z,32.20
2018-02-17T05:01:55.731Z,33.25
2018-02-17T05:04:25.357Z,27.95
2018-02-17T05:07:07.126Z,29.30
2018-02-17T05:09:33.991Z,32.47
2018-02-17T05:12:00.826Z,29.92
2018-02-17T05:14:27.842Z,32.60
2018-02-17T05:17:00.686Z,32.42
2018-02-17T05:19:29.449Z,31.52
2018-02-17T05:22:13.122Z,31.55
2018-02-17T05:24:55.332Z,31.83
2018-02-17T05:27:24.702Z,30.58
2018-02-17T05:29:53.598Z,33.50
2018-02-17T05:32:21.489Z,32.20
2018-02-17T05:35:04.055Z,33.72
2018-02-17T05:37:46.545Z,31.75
2018-02-17T05:40:31.206Z,32.05
2018-02-17T05:43:13.526Z,30.85
2018-02-17T05:45:46.941Z,32.97
2018-02-17T05:48:13.812Z,33.05
2018-02-17T05:50:41.441Z,30.05
2018-02-17T05:53:08.255Z,30.45
2018-02-17T05:55:35.642Z,31.60
2018-02-17T05:58:02.614Z,30.23
2018-02-17T06:00:29.598Z,33.67
2018-02-17T06:02:56.414Z,32.00
2018-02-17T06:05:24.110Z,31.42
2018-02-17T06:07:51.001Z,32.63
2018-02-17T06:10:18.579Z,32.25
2018-02-17T06:12:45.675Z,32.95
2018-02-17T06:15:12.826Z,31.33
2018-02-17T06:17:39.778Z,33.67
2018-02-17T06:20:06.893Z,34.42
2018-02-17T06:22:33.738Z,32.53
2018-02-17T06:25:00.637Z,33.30
2018-02-17T06:27:28.209Z,37.58
2018-02-17T06:29:55.268Z,39.70
2018-02-17T06:32:23.063Z,39.50
2018-02-17T06:34:50.027Z,39.75
2018-02-17T06:37:16.875Z,39.70
2018-02-17T06:39:43.702Z,40.60
2018-02-17T06:42:10.536Z,36.10
2018-02-17T06:44:37.462Z,39.65
2018-02-17T06:47:04.278Z,40.05
2018-02-17T06:49:33.240Z,38.25
2018-02-17T06:52:00.151Z,38.38
2018-02-17T06:54:27.226Z,40.25
2018-02-17T06:56:54.224Z,37.22
2018-02-17T06:59:21.624Z,36.15
2018-02-17T07:01:49.430Z,35.97
2018-02-17T07:04:16.358Z,36.10
2018-02-17T07:06:44.159Z,36.55
2018-02-17T07:09:11.191Z,35.92
2018-02-17T07:11:42.245Z,34.97
2018-02-17T07:14:10.406Z,35.60
2018-02-17T07:16:37.296Z,35.03
2018-02-17T07:19:04.144Z,36.40
2018-02-17T07:21:31.035Z,36.40
2018-02-17T07:23:58.845Z,34.45
2018-02-17T07:26:25.778Z,38.03
2018-02-17T07:28:52.649Z,34.13
2018-02-17T07:31:19.654Z,34.30
2018-02-17T07:33:47.274Z,32.13
2018-02-17T07:36:15.060Z,35.30
2018-02-17T07:38:41.939Z,29.73
2018-02-17T07:41:08.904Z,33.55
2018-02-17T07:43:35.839Z,28.85
2018-02-17T07:46:02.986Z,31.00
2018-02-17T07:48:29.838Z,32.55
2018-02-17T07:50:56.671Z,31.58
2018-02-17T07:53:23.811Z,29.25
2018-02-17T07:55:50.814Z,27.92
2018-02-17T07:58:17.780Z,27.17
2018-02-17T08:00:44.690Z,26.37
2018-02-17T08:03:11.566Z,26.60
2018-02-17T08:05:38.478Z,25.88
2018-02-17T08:08:06.094Z,30.05
2018-02-17T08:10:32.953Z,31.17
2018-02-17T08:12:59.850Z,32.70
2018-02-17T08:15:26.833Z,33.53
2018-02-17T08:17:53.681Z,35.33
2018-02-17T08:20:20.558Z,32.65
2018-02-17T08:22:48.411Z,29.83
2018-02-17T08:25:16.170Z,31.48
2018-02-17T08:27:43.020Z,31.20
2018-02-17T08:30:10.067Z,34.10
2018-02-17T08:32:36.991Z,32.95
2018-02-17T08:35:03.894Z,28.80
2018-02-17T08:37:30.994Z,27.62
2018-02-17T08:39:57.891Z,29.83
2018-02-17T08:42:24.739Z,28.15
2018-02-17T08:44:51.665Z,27.87
2018-02-17T08:47:18.490Z,31.40
2018-02-17T08:49:46.098Z,27.25
2018-02-17T08:52:12.966Z,26.27
2018-02-17T08:54:39.990Z,27.75
2018-02-17T08:57:06.825Z,26.77
2018-02-17T08:59:33.683Z,26.97
2018-02-17T09:02:00.529Z,28.42
2018-02-17T09:04:27.463Z,27.40
2018-02-17T09:06:54.345Z,28.87
2018-02-17T09:09:21.203Z,30.10
2018-02-17T09:11:48.094Z,29.15
2018-02-17T09:14:15.015Z,24.70
2018-02-17T09:16:41.882Z,29.85
2018-02-17T09:19:08.737Z,29.58
2018-02-17T09:21:35.681Z,30.50
2018-02-17T09:24:02.578Z,31.10
2018-02-17T09:26:30.274Z,32.13
2018-02-17T09:28:57.142Z,31.45
2018-02-17T09:31:23.983Z,31.03
2018-02-17T09:33:50.846Z,37.87
2018-02-17T09:36:17.729Z,33.87
2018-02-17T09:38:44.597Z,33.03
2018-02-17T09:41:11.422Z,36.20
2018-02-17T09:43:38.264Z,35.03
2018-02-17T09:46:05.131Z,35.30
2018-02-17T09:48:31.978Z,35.23
2018-02-17T09:50:58.789Z,33.00
2018-02-17T09:53:25.642Z,30.25
2018-02-17T09:55:52.561Z,32.15
2018-02-17T09:58:20.130Z,34.63
2018-02-17T10:00:47.730Z,31.12
2018-02-17T10:03:14.586Z,31.90
2018-02-17T10:05:41.543Z,31.30
2018-02-17T10:08:08.392Z,26.37
2018-02-17T10:10:35.407Z,27.30
2018-02-17T10:13:02.499Z,28.07
2018-02-17T10:15:30.480Z,27.20
2018-02-17T10:17:58.119Z,31.13
2018-02-17T10:20:25.702Z,30.87
2018-02-17T10:22:52.592Z,29.67
2018-02-17T10:25:19.454Z,30.70
2018-02-17T10:27:46.558Z,29.17
2018-02-17T10:30:13.520Z,29.17
2018-02-17T10:32:40.698Z,31.13
2018-02-17T10:35:07.650Z,32.40
2018-02-17T10:37:34.587Z,28.77
2018-02-17T10:40:02.262Z,31.67
2018-02-17T10:42:29.112Z,27.80
2018-02-17T10:44:56.142Z,27.53
2018-02-17T10:47:23.767Z,29.07
2018-02-17T10:49:50.827Z,29.60
2018-02-17T10:52:18.482Z,29.80
2018-02-17T10:54:45.480Z,31.93
2018-02-17T10:57:13.138Z,30.50
2018-02-17T10:59:40.902Z,30.03
2018-02-17T11:02:08.066Z,28.97
2018-02-17T11:04:35.099Z,25.70
2018-02-17T11:07:02.030Z,31.23
2018-02-17T11:09:29.712Z,32.50
2018-02-17T11:11:57.372Z,33.93
2018-02-17T11:14:24.451Z,29.90
2018-02-17T11:16:52.078Z,29.53
2018-02-17T11:19:19.039Z,24.47
2018-02-17T11:21:46.820Z,23.00
2018-02-17T11:24:13.718Z,20.50
2018-02-17T11:26:40.608Z,23.50
2018-02-17T11:29:08.274Z,26.13
2018-02-17T11:31:35.135Z,26.97
2018-02-17T11:34:02.056Z,23.93
2018-02-17T11:36:28.880Z,24.57
2018-02-17T11:38:55.705Z,23.43
2018-02-17T11:41:22.562Z,24.13
2018-02-17T11:43:49.483Z,22.43
2018-02-17T11:46:16.360Z,22.23
2018-02-17T11:48:44.618Z,22.27
2018-02-17T11:51:11.595Z,26.70
2018-02-17T11:53:38.441Z,24.40
2018-02-17T11:56:05.314Z,25.00
2018-02-17T11:58:32.235Z,25.53
2018-02-17T12:00:59.107Z,24.50
2018-02-17T12:03:26.017Z,25.70
2018-02-17T12:05:53.071Z,26.03
2018-02-17T12:08:20.032Z,26.50
2018-02-17T12:10:46.979Z,27.20
2018-02-17T12:13:13.874Z,26.40
2018-02-17T12:15:40.792Z,28.07
2018-02-17T12:18:08.575Z,27.37
2018-02-17T12:20:35.625Z,28.77
2018-02-17T12:23:03.210Z,28.70
2018-02-17T12:25:30.220Z,27.83
2018-02-17T12:27:57.831Z,28.43
2018-02-17T12:30:25.507Z,27.27
2018-02-17T12:32:52.418Z,28.57
2018-02-17T12:35:19.323Z,26.27
2018-02-17T12:37:46.215Z,26.10
2018-02-17T12:40:13.107Z,28.73
2018-02-17T12:42:39.936Z,28.83
2018-02-17T12:45:06.922Z,27.50
2018-02-17T12:47:33.766Z,27.93
2018-02-17T12:50:01.615Z,23.47
2018-02-17T12:52:28.478Z,23.63
2018-02-17T12:54:56.119Z,23.60
2018-02-17T12:57:22.982Z,22.87
2018-02-17T12:59:49.970Z,22.63
2018-02-17T13:02:16.863Z,24.97
2018-02-17T13:04:43.838Z,24.47
2018-02-17T13:07:10.703Z,24.17
2018-02-17T13:09:37.639Z,24.40
2018-02-17T13:12:04.470Z,26.43
2018-02-17T13:14:31.641Z,25.23
2018-02-17T13:16:59.435Z,24.03
2018-02-17T13:19:26.319Z,23.43
2018-02-17T13:21:53.343Z,24.90
2018-02-17T13:24:20.298Z,24.40
2018-02-17T13:26:47.188Z,24.37
2018-02-17T13:29:14.863Z,27.17
2018-02-17T13:31:41.711Z,26.77
2018-02-17T13:34:08.599Z,27.23
2018-02-17T13:36:36.241Z,27.23
2018-02-17T13:39:03.151Z,25.60
2018-02-17T13:41:30.004Z,26.43
2018-02-17T13:43:56.915Z,23.90
2018-02-17T13:46:23.976Z,21.40
2018-02-17T13:48:50.844Z,21.50
2018-02-17T13:51:18.457Z,19.90
2018-02-17T13:53:45.363Z,18.07
2018-02-17T13:56:12.386Z,21.23
2018-02-17T13:58:40.027Z,19.20
2018-02-17T14:01:06.886Z,16.90
2018-02-17T14:03:33.730Z,15.13
2018-02-17T14:06:00.614Z,14.10
2018-02-17T14:08:28.221Z,13.97
2018-02-17T14:10:55.084Z,15.40
2018-02-17T14:13:22.006Z,14.60
2018-02-17T14:15:48.914Z,15.00
2018-02-17T14:18:16.704Z,14.93
2018-02-17T14:20:43.572Z,16.23
2018-02-17T14:23:10.439Z,15.70
2018-02-17T14:25:37.298Z,17.10
2018-02-17T14:28:04.267Z,17.27
2018-02-17T14:30:31.851Z,15.00
2018-02-17T14:32:58.682Z,16.40
2018-02-17T14:35:25.647Z,17.80
2018-02-17T14:37:52.537Z,17.97
2018-02-17T14:40:19.362Z,20.10
2018-02-17T14:42:46.273Z,18.50
2018-02-17T14:45:14.120Z,19.00
2018-02-17T14:47:40.971Z,18.87
2018-02-17T14:50:07.835Z,18.70
2018-02-17T14:52:34.782Z,20.83
2018-02-17T14:55:01.700Z,19.80
2018-02-17T14:57:28.632Z,20.80
2018-02-17T14:59:55.472Z,20.30
2018-02-17T15:02:22.351Z,22.00
2018-02-17T15:04:49.270Z,19.80
2018-02-17T15:07:16.135Z,20.03
2018-02-17T15:09:42.972Z,21.53
2018-02-17T15:12:09.842Z,20.98
2018-02-17T15:14:36.830Z,23.02
2018-02-17T15:17:04.500Z,21.40
2018-02-17T15:19:31.399Z,26.02
2018-02-17T15:21:58.290Z,29.50
2018-02-17T15:24:25.216Z,24.05
2018-02-17T15:26:52.139Z,26.50
2018-02-17T15:29:19.003Z,25.50
2018-02-17T15:31:46.607Z,26.95
2018-02-17T15:34:13.510Z,24.95
2018-02-17T15:36:40.399Z,22.33
2018-02-17T15:39:08.034Z,23.30
2018-02-17T15:41:35.046Z,22.92
2018-02-17T15:44:02.231Z,22.55
2018-02-17T15:46:30.071Z,22.35
2018-02-17T15:48:57.067Z,22.15
2018-02-17T15:51:23.931Z,25.67
2018-02-17T15:53:51.034Z,22.05
2018-02-17T15:56:18.110Z,24.27
2018-02-17T15:58:45.064Z,23.58
2018-02-17T16:01:12.935Z,23.02
2018-02-17T16:03:39.878Z,22.58
2018-02-17T16:06:06.928Z,24.90
2018-02-17T16:08:33.937Z,23.83
2018-02-17T16:11:00.812Z,23.65
2018-02-17T16:13:27.700Z,21.12
2018-02-17T16:15:55.467Z,22.08
2018-02-17T16:18:22.454Z,24.17
2018-02-17T16:20:49.518Z,21.67
2018-02-17T16:23:16.572Z,22.65
2018-02-17T16:25:43.551Z,24.15
2018-02-17T16:28:11.127Z,23.05
2018-02-17T16:30:38.019Z,24.48
2018-02-17T16:33:04.868Z,24.52
2018-02-17T16:35:31.838Z,25.55
2018-02-17T16:37:59.424Z,22.02
2018-02-17T16:40:26.280Z,24.60
2018-02-17T16:42:53.144Z,24.40
2018-02-17T16:45:20.034Z,23.50
2018-02-17T16:47:46.858Z,23.48
2018-02-17T16:50:13.742Z,26.92
2018-02-17T16:52:40.582Z,29.67
2018-02-17T16:55:07.493Z,29.00
2018-02-17T16:57:34.355Z,29.92
2018-02-17T17:00:01.950Z,28.42
2018-02-17T17:02:28.823Z,31.35
2018-02-17T17:04:55.679Z,32.17
2018-02-17T17:07:23.321Z,32.20
2018-02-17T17:09:50.178Z,34.78
2018-02-17T17:12:17.055Z,33.58
2018-02-17T17:14:44.693Z,36.10
2018-02-17T17:17:11.595Z,35.35
2018-02-17T17:19:38.598Z,34.08
2018-02-17T17:22:06.299Z,35.83
2018-02-17T17:24:33.340Z,36.10
2018-02-17T17:27:00.242Z,35.92
2018-02-17T17:29:28.118Z,37.50
2018-02-17T17:31:54.975Z,36.13
2018-02-17T17:34:22.623Z,40.22
2018-02-17T17:36:50.186Z,35.40
2018-02-17T17:39:17.030Z,36.67
2018-02-17T17:41:44.614Z,38.13
2018-02-17T17:44:11.738Z,39.10
2018-02-17T17:46:38.740Z,37.85
2018-02-17T17:49:05.595Z,38.53
2018-02-17T17:51:32.426Z,37.63
2018-02-17T17:54:00.325Z,39.63
2018-02-17T17:56:27.249Z,39.85
2018-02-17T17:58:54.113Z,41.65
2018-02-17T18:01:21.051Z,39.65
2018-02-17T18:03:48.014Z,37.17
2018-02-17T18:06:14.875Z,41.17
2018-02-17T18:08:42.439Z,39.17
2018-02-17T18:11:09.311Z,42.88
2018-02-17T18:13:36.188Z,36.35
2018-02-17T18:16:03.066Z,37.38
2018-02-17T18:18:29.946Z,40.28
2018-02-17T18:20:56.838Z,41.13
2018-02-17T18:23:24.421Z,39.20
2018-02-17T18:25:51.339Z,41.35
2018-02-17T18:28:18.210Z,38.33
2018-02-17T18:30:45.067Z,39.90
2018-02-17T18:33:11.910Z,39.42
2018-02-17T18:35:38.811Z,40.12
2018-02-17T18:38:05.660Z,41.05
2018-02-17T18:40:34.134Z,41.10
2018-02-17T18:43:00.971Z,40.03
2018-02-17T18:45:28.620Z,39.60
2018-02-17T18:47:55.515Z,40.63
2018-02-17T18:50:22.415Z,38.45
2018-02-17T18:52:50.019Z,38.13
2018-02-17T18:55:17.646Z,35.75
2018-02-17T18:57:44.619Z,34.05
2018-02-17T19:00:11.703Z,37.47
2018-02-17T19:02:38.567Z,35.60
2018-02-17T19:05:07.560Z,35.63
2018-02-17T19:07:35.961Z,35.78
2018-02-17T19:10:02.992Z,34.88
2018-02-17T19:12:30.742Z,38.03
2018-02-17T19:14:57.915Z,37.80
2018-02-17T19:17:24.847Z,35.85
2018-02-17T19:19:51.866Z,37.50
2018-02-17T19:22:18.708Z,36.95
2018-02-17T19:24:45.759Z,39.22
2018-02-17T19:27:12.803Z,34.00
2018-02-17T19:29:39.710Z,34.42
2018-02-17T19:32:06.615Z,39.67
2018-02-17T19:34:33.767Z,37.58
2018-02-17T19:37:00.799Z,36.80
2018-02-17T19:39:28.439Z,37.22
2018-02-17T19:41:55.291Z,38.78
2018-02-17T19:44:22.471Z,37.53
2018-02-17T19:46:49.456Z,40.88
2018-02-17T19:49:16.454Z,39.38
2018-02-17T19:51:43.464Z,36.00
2018-02-17T19:54:10.558Z,38.25
2018-02-17T19:56:39.094Z,36.08
2018-02-17T19:59:06.089Z,34.65
2018-02-17T20:01:33.064Z,38.03
2018-02-17T20:04:00.057Z,36.45
2018-02-17T20:06:27.702Z,35.83
2018-02-17T20:08:54.631Z,35.83
2018-02-17T20:11:21.647Z,36.80
2018-02-17T20:13:51.534Z,36.67
2018-02-17T20:16:18.462Z,36.88
2018-02-17T20:18:46.273Z,38.40
2018-02-17T20:21:13.188Z,37.20
2018-02-17T20:23:40.026Z,35.50
2018-02-17T20:26:07.039Z,39.78
2018-02-17T20:28:34.125Z,40.15
2018-02-17T20:31:01.028Z,37.50
2018-02-17T20:33:27.977Z,38.88
2018-02-17T20:35:55.086Z,38.38
2018-02-17T20:38:22.000Z,36.40
2018-02-17T20:40:48.944Z,40.03
2018-02-17T20:43:16.288Z,39.28
2018-02-17T20:45:43.175Z,37.78
2018-02-17T20:48:10.163Z,38.05
2018-02-17T20:50:37.106Z,37.42
2018-02-17T20:53:05.083Z,40.28
2018-02-17T20:55:32.666Z,37.10
2018-02-17T20:57:59.626Z,40.72
2018-02-17T21:00:26.603Z,39.50
2018-02-17T21:02:54.601Z,40.58
2018-02-17T22:27:24.399Z,38.10
2018-02-17T22:29:51.239Z,40.15
2018-02-17T22:32:18.904Z,40.55
2018-02-17T22:34:46.608Z,40.55
2018-02-17T22:37:13.434Z,42.47
2018-02-17T22:39:41.035Z,39.10
2018-02-17T22:42:07.899Z,40.05
2018-02-17T22:44:34.754Z,44.28
2018-02-17T22:47:01.646Z,43.30
2018-02-17T22:49:28.487Z,39.95
2018-02-17T22:51:55.320Z,41.58
2018-02-17T22:54:22.242Z,37.85
2018-02-17T22:56:49.823Z,42.53
2018-02-17T22:59:16.655Z,37.47
2018-02-17T23:01:44.257Z,39.00
2018-02-17T23:04:11.155Z,39.50
2018-02-17T23:06:38.022Z,40.05
2018-02-17T23:09:05.582Z,39.03
2018-02-17T23:11:33.162Z,39.33
2018-02-17T23:14:00.035Z,41.17
2018-02-17T23:16:26.888Z,39.33
2018-02-17T23:18:53.742Z,41.20
2018-02-17T23:21:20.545Z,37.88
2018-02-17T23:23:47.423Z,41.13
2018-02-17T23:26:14.306Z,39.47
2018-02-17T23:28:41.142Z,38.45
2018-02-17T23:31:08.013Z,36.25
2018-02-17T23:33:34.880Z,39.75
2018-02-17T23:36:01.821Z,37.97
2018-02-17T23:38:28.658Z,39.60
2018-02-17T23:40:56.279Z,38.88
2018-02-17T23:43:23.115Z,40.90
2018-02-17T23:45:50.017Z,39.10
2018-02-17T23:48:16.878Z,40.20
2018-02-17T23:50:43.734Z,40.17
2018-02-17T23:53:10.537Z,40.10
2018-02-17T23:55:37.382Z,42.38
2018-02-17T23:58:04.255Z,37.90
